sensor_id;sensor_type;location;lat;lon;timestamp;temperature;humidity
152;DHT22;68;48.792;9.164;2023-12-29T00:00:01;9.70;96.00
152;DHT22;68;48.792;9.164;2023-12-29T00:02:28;9.60;96.40
152;DHT22;68;48.792;9.164;2023-12-29T00:04:56;9.70;96.20
152;DHT22;68;48.792;9.164;2023-12-29T00:07:23;9.80;95.90
152;DHT22;68;48.792;9.164;2023-12-29T00:09:50;9.90;95.70
152;DHT22;68;48.792;9.164;2023-12-29T00:12:15;9.90;95.60
152;DHT22;68;48.792;9.164;2023-12-29T00:14:42;9.80;95.60
152;DHT22;68;48.792;9.164;2023-12-29T00:17:10;9.80;95.80
152;DHT22;68;48.792;9.164;2023-12-29T00:19:36;9.90;95.50
152;DHT22;68;48.792;9.164;2023-12-29T00:22:05;10.00;95.20
152;DHT22;68;48.792;9.164;2023-12-29T00:24:32;10.20;94.70
152;DHT22;68;48.792;9.164;2023-12-29T00:26:59;10.20;94.10
152;DHT22;68;48.792;9.164;2023-12-29T00:29:26;10.00;94.40
152;DHT22;68;48.792;9.164;2023-12-29T00:31:57;10.10;94.50
152;DHT22;68;48.792;9.164;2023-12-29T00:34:24;10.00;94.50
152;DHT22;68;48.792;9.164;2023-12-29T00:36:51;9.90;95.00
152;DHT22;68;48.792;9.164;2023-12-29T00:39:19;10.00;94.70
152;DHT22;68;48.792;9.164;2023-12-29T00:41:54;10.00;94.50
152;DHT22;68;48.792;9.164;2023-12-29T00:44:20;10.10;94.30
152;DHT22;68;48.792;9.164;2023-12-29T00:46:47;10.10;94.20
152;DHT22;68;48.792;9.164;2023-12-29T00:49:14;10.20;93.80
152;DHT22;68;48.792;9.164;2023-12-29T00:51:41;10.20;93.80
152;DHT22;68;48.792;9.164;2023-12-29T00:54:07;10.20;94.10
152;DHT22;68;48.792;9.164;2023-12-29T00:56:36;10.10;94.20
152;DHT22;68;48.792;9.164;2023-12-29T00:59:02;10.10;94.60
152;DHT22;68;48.792;9.164;2023-12-29T01:01:33;10.20;94.80
152;DHT22;68;48.792;9.164;2023-12-29T01:04:00;10.10;94.70
152;DHT22;68;48.792;9.164;2023-12-29T01:06:27;10.00;95.30
152;DHT22;68;48.792;9.164;2023-12-29T01:08:53;10.00;95.30
152;DHT22;68;48.792;9.164;2023-12-29T01:11:20;10.10;95.00
152;DHT22;68;48.792;9.164;2023-12-29T01:13:48;10.00;95.20
152;DHT22;68;48.792;9.164;2023-12-29T01:16:15;10.00;95.00
152;DHT22;68;48.792;9.164;2023-12-29T01:18:42;10.00;95.20
152;DHT22;68;48.792;9.164;2023-12-29T01:21:09;10.10;94.60
152;DHT22;68;48.792;9.164;2023-12-29T01:23:35;10.10;94.60
152;DHT22;68;48.792;9.164;2023-12-29T01:26:02;10.10;94.20
152;DHT22;68;48.792;9.164;2023-12-29T01:28:29;10.20;94.20
152;DHT22;68;48.792;9.164;2023-12-29T01:30:57;10.20;93.50
152;DHT22;68;48.792;9.164;2023-12-29T01:33:24;10.20;93.80
152;DHT22;68;48.792;9.164;2023-12-29T01:35:51;10.00;93.90
152;DHT22;68;48.792;9.164;2023-12-29T01:38:17;10.00;93.80
152;DHT22;68;48.792;9.164;2023-12-29T01:40:44;9.90;94.70
152;DHT22;68;48.792;9.164;2023-12-29T01:43:11;10.00;94.00
152;DHT22;68;48.792;9.164;2023-12-29T01:45:38;10.00;93.80
152;DHT22;68;48.792;9.164;2023-12-29T01:48:08;10.10;93.70
152;DHT22;68;48.792;9.164;2023-12-29T01:50:35;10.20;93.20
152;DHT22;68;48.792;9.164;2023-12-29T01:53:03;10.20;93.40
152;DHT22;68;48.792;9.164;2023-12-29T01:55:30;10.20;93.00
152;DHT22;68;48.792;9.164;2023-12-29T01:57:57;10.20;93.20
152;DHT22;68;48.792;9.164;2023-12-29T02:00:25;10.40;92.60
152;DHT22;68;48.792;9.164;2023-12-29T02:02:52;10.50;92.10
152;DHT22;68;48.792;9.164;2023-12-29T02:05:21;10.50;91.90
152;DHT22;68;48.792;9.164;2023-12-29T02:07:51;10.50;92.00
152;DHT22;68;48.792;9.164;2023-12-29T02:10:19;10.50;91.80
152;DHT22;68;48.792;9.164;2023-12-29T02:12:47;10.50;91.60
152;DHT22;68;48.792;9.164;2023-12-29T02:15:14;10.60;91.70
152;DHT22;68;48.792;9.164;2023-12-29T02:17:44;10.40;92.00
152;DHT22;68;48.792;9.164;2023-12-29T02:20:12;10.30;92.60
152;DHT22;68;48.792;9.164;2023-12-29T02:22:41;10.30;92.80
152;DHT22;68;48.792;9.164;2023-12-29T02:25:09;10.40;92.30
152;DHT22;68;48.792;9.164;2023-12-29T02:27:43;10.40;92.60
152;DHT22;68;48.792;9.164;2023-12-29T02:30:18;10.40;92.70
152;DHT22;68;48.792;9.164;2023-12-29T02:32:46;10.40;92.20
152;DHT22;68;48.792;9.164;2023-12-29T02:35:17;10.40;92.00
152;DHT22;68;48.792;9.164;2023-12-29T02:37:44;10.40;92.00
152;DHT22;68;48.792;9.164;2023-12-29T02:40:14;10.40;92.00
152;DHT22;68;48.792;9.164;2023-12-29T02:42:45;10.50;91.80
152;DHT22;68;48.792;9.164;2023-12-29T02:45:13;10.40;91.90
152;DHT22;68;48.792;9.164;2023-12-29T02:47:39;10.40;92.20
152;DHT22;68;48.792;9.164;2023-12-29T02:50:07;10.40;92.20
152;DHT22;68;48.792;9.164;2023-12-29T02:52:34;10.40;92.10
152;DHT22;68;48.792;9.164;2023-12-29T02:55:01;10.30;92.70
152;DHT22;68;48.792;9.164;2023-12-29T02:57:29;10.40;92.70
152;DHT22;68;48.792;9.164;2023-12-29T02:59:56;10.30;93.40
152;DHT22;68;48.792;9.164;2023-12-29T03:02:23;10.20;93.40
152;DHT22;68;48.792;9.164;2023-12-29T03:04:50;10.30;93.60
152;DHT22;68;48.792;9.164;2023-12-29T03:09:44;10.20;94.50
152;DHT22;68;48.792;9.164;2023-12-29T03:12:11;10.20;94.60
152;DHT22;68;48.792;9.164;2023-12-29T03:14:39;10.10;95.00
152;DHT22;68;48.792;9.164;2023-12-29T03:17:06;10.10;95.20
152;DHT22;68;48.792;9.164;2023-12-29T03:19:32;10.00;95.20
152;DHT22;68;48.792;9.164;2023-12-29T03:21:59;10.00;95.60
152;DHT22;68;48.792;9.164;2023-12-29T03:24:26;9.90;95.60
152;DHT22;68;48.792;9.164;2023-12-29T03:26:53;9.90;95.70
152;DHT22;68;48.792;9.164;2023-12-29T03:29:20;10.00;95.60
152;DHT22;68;48.792;9.164;2023-12-29T03:31:48;10.00;95.70
152;DHT22;68;48.792;9.164;2023-12-29T03:34:15;10.00;95.60
152;DHT22;68;48.792;9.164;2023-12-29T03:36:42;9.90;95.70
152;DHT22;68;48.792;9.164;2023-12-29T03:39:09;9.90;95.90
152;DHT22;68;48.792;9.164;2023-12-29T03:41:36;9.90;95.90
152;DHT22;68;48.792;9.164;2023-12-29T03:44:03;9.80;96.00
152;DHT22;68;48.792;9.164;2023-12-29T03:46:31;9.90;96.10
152;DHT22;68;48.792;9.164;2023-12-29T03:48:59;10.00;95.80
152;DHT22;68;48.792;9.164;2023-12-29T03:51:26;9.90;95.90
152;DHT22;68;48.792;9.164;2023-12-29T03:53:53;9.80;96.20
152;DHT22;68;48.792;9.164;2023-12-29T03:56:20;9.80;96.30
152;DHT22;68;48.792;9.164;2023-12-29T03:58:47;9.80;96.30
152;DHT22;68;48.792;9.164;2023-12-29T04:01:15;9.70;96.40
152;DHT22;68;48.792;9.164;2023-12-29T04:03:42;9.70;96.40
152;DHT22;68;48.792;9.164;2023-12-29T04:06:11;9.60;96.40
152;DHT22;68;48.792;9.164;2023-12-29T04:08:38;9.60;96.40
152;DHT22;68;48.792;9.164;2023-12-29T04:11:05;9.70;96.30
152;DHT22;68;48.792;9.164;2023-12-29T04:13:32;9.70;96.40
152;DHT22;68;48.792;9.164;2023-12-29T04:15:59;9.70;96.40
152;DHT22;68;48.792;9.164;2023-12-29T04:18:26;9.70;96.30
152;DHT22;68;48.792;9.164;2023-12-29T04:20:54;9.80;96.20
152;DHT22;68;48.792;9.164;2023-12-29T04:23:22;9.80;96.20
152;DHT22;68;48.792;9.164;2023-12-29T04:25:48;9.80;96.30
152;DHT22;68;48.792;9.164;2023-12-29T04:28:15;9.70;96.30
152;DHT22;68;48.792;9.164;2023-12-29T04:30:42;9.60;95.90
152;DHT22;68;48.792;9.164;2023-12-29T04:33:09;9.60;95.80
152;DHT22;68;48.792;9.164;2023-12-29T04:35:36;9.60;95.30
152;DHT22;68;48.792;9.164;2023-12-29T04:38:03;9.60;95.10
152;DHT22;68;48.792;9.164;2023-12-29T04:40:33;9.60;94.40
152;DHT22;68;48.792;9.164;2023-12-29T04:43:00;9.60;94.70
152;DHT22;68;48.792;9.164;2023-12-29T04:45:26;9.50;94.40
152;DHT22;68;48.792;9.164;2023-12-29T04:47:54;9.50;93.50
152;DHT22;68;48.792;9.164;2023-12-29T04:50:21;9.60;94.10
152;DHT22;68;48.792;9.164;2023-12-29T04:52:48;9.70;95.00
152;DHT22;68;48.792;9.164;2023-12-29T04:55:14;9.70;94.80
152;DHT22;68;48.792;9.164;2023-12-29T04:57:42;9.70;94.60
152;DHT22;68;48.792;9.164;2023-12-29T05:00:10;9.70;94.20
152;DHT22;68;48.792;9.164;2023-12-29T05:02:37;9.70;94.20
152;DHT22;68;48.792;9.164;2023-12-29T05:05:05;9.80;94.90
152;DHT22;68;48.792;9.164;2023-12-29T05:07:32;9.90;95.10
152;DHT22;68;48.792;9.164;2023-12-29T05:09:58;9.90;95.30
152;DHT22;68;48.792;9.164;2023-12-29T05:12:25;9.90;94.90
152;DHT22;68;48.792;9.164;2023-12-29T05:14:53;9.90;95.10
152;DHT22;68;48.792;9.164;2023-12-29T05:17:20;9.80;94.70
152;DHT22;68;48.792;9.164;2023-12-29T05:19:47;9.90;94.90
152;DHT22;68;48.792;9.164;2023-12-29T05:22:14;9.90;94.40
152;DHT22;68;48.792;9.164;2023-12-29T05:27:10;9.70;92.00
152;DHT22;68;48.792;9.164;2023-12-29T05:29:37;9.70;90.40
152;DHT22;68;48.792;9.164;2023-12-29T05:32:06;9.70;90.20
152;DHT22;68;48.792;9.164;2023-12-29T05:34:33;9.70;89.90
152;DHT22;68;48.792;9.164;2023-12-29T05:37:00;9.70;89.30
152;DHT22;68;48.792;9.164;2023-12-29T05:39:27;9.70;87.10
152;DHT22;68;48.792;9.164;2023-12-29T05:41:54;9.60;84.40
152;DHT22;68;48.792;9.164;2023-12-29T05:44:21;9.60;84.30
152;DHT22;68;48.792;9.164;2023-12-29T05:46:48;9.50;80.30
152;DHT22;68;48.792;9.164;2023-12-29T05:49:16;9.50;77.20
152;DHT22;68;48.792;9.164;2023-12-29T05:54:10;9.40;76.40
152;DHT22;68;48.792;9.164;2023-12-29T05:56:37;9.50;72.50
152;DHT22;68;48.792;9.164;2023-12-29T05:59:04;9.50;73.30
152;DHT22;68;48.792;9.164;2023-12-29T06:01:31;9.50;71.70
152;DHT22;68;48.792;9.164;2023-12-29T06:03:58;9.50;73.40
152;DHT22;68;48.792;9.164;2023-12-29T06:06:26;9.40;71.10
152;DHT22;68;48.792;9.164;2023-12-29T06:08:53;9.50;68.30
152;DHT22;68;48.792;9.164;2023-12-29T06:11:20;9.50;71.20
152;DHT22;68;48.792;9.164;2023-12-29T06:13:47;9.40;68.80
152;DHT22;68;48.792;9.164;2023-12-29T06:16:18;9.40;66.20
152;DHT22;68;48.792;9.164;2023-12-29T06:18:45;9.40;68.40
152;DHT22;68;48.792;9.164;2023-12-29T06:21:12;9.40;68.70
152;DHT22;68;48.792;9.164;2023-12-29T06:23:40;9.40;69.20
152;DHT22;68;48.792;9.164;2023-12-29T06:26:14;9.40;69.80
152;DHT22;68;48.792;9.164;2023-12-29T06:28:41;9.50;68.60
152;DHT22;68;48.792;9.164;2023-12-29T06:31:07;9.50;72.20
152;DHT22;68;48.792;9.164;2023-12-29T06:33:34;9.50;75.30
152;DHT22;68;48.792;9.164;2023-12-29T06:36:01;9.30;74.50
152;DHT22;68;48.792;9.164;2023-12-29T06:38:28;9.30;71.80
152;DHT22;68;48.792;9.164;2023-12-29T06:40:57;9.20;67.50
152;DHT22;68;48.792;9.164;2023-12-29T06:43:23;9.20;67.00
152;DHT22;68;48.792;9.164;2023-12-29T06:45:50;9.30;69.70
152;DHT22;68;48.792;9.164;2023-12-29T06:48:17;9.20;70.30
152;DHT22;68;48.792;9.164;2023-12-29T06:50:44;9.30;69.70
152;DHT22;68;48.792;9.164;2023-12-29T06:53:11;9.30;70.70
152;DHT22;68;48.792;9.164;2023-12-29T06:55:38;9.30;70.90
152;DHT22;68;48.792;9.164;2023-12-29T06:58:07;9.30;70.30
152;DHT22;68;48.792;9.164;2023-12-29T07:00:34;9.20;70.30
152;DHT22;68;48.792;9.164;2023-12-29T07:03:00;9.30;70.40
152;DHT22;68;48.792;9.164;2023-12-29T07:05:27;9.40;69.40
152;DHT22;68;48.792;9.164;2023-12-29T07:07:54;9.50;73.70
152;DHT22;68;48.792;9.164;2023-12-29T07:10:21;9.50;74.50
152;DHT22;68;48.792;9.164;2023-12-29T07:12:48;9.40;74.40
152;DHT22;68;48.792;9.164;2023-12-29T07:15:16;9.50;74.50
152;DHT22;68;48.792;9.164;2023-12-29T07:17:43;9.50;76.00
152;DHT22;68;48.792;9.164;2023-12-29T07:20:10;9.50;76.50
152;DHT22;68;48.792;9.164;2023-12-29T07:22:37;9.60;75.50
152;DHT22;68;48.792;9.164;2023-12-29T07:25:04;9.60;76.60
152;DHT22;68;48.792;9.164;2023-12-29T07:27:31;9.50;73.40
152;DHT22;68;48.792;9.164;2023-12-29T07:29:58;9.60;73.00
152;DHT22;68;48.792;9.164;2023-12-29T07:32:26;9.60;73.80
152;DHT22;68;48.792;9.164;2023-12-29T07:34:53;9.50;73.70
152;DHT22;68;48.792;9.164;2023-12-29T07:37:19;9.60;71.20
152;DHT22;68;48.792;9.164;2023-12-29T07:39:46;9.60;75.50
152;DHT22;68;48.792;9.164;2023-12-29T07:42:14;9.50;73.30
152;DHT22;68;48.792;9.164;2023-12-29T07:44:42;9.60;72.80
152;DHT22;68;48.792;9.164;2023-12-29T07:47:09;9.70;74.70
152;DHT22;68;48.792;9.164;2023-12-29T07:49:38;9.60;71.70
152;DHT22;68;48.792;9.164;2023-12-29T07:52:07;9.70;73.20
152;DHT22;68;48.792;9.164;2023-12-29T07:54:34;9.70;72.40
152;DHT22;68;48.792;9.164;2023-12-29T07:57:01;9.60;72.50
152;DHT22;68;48.792;9.164;2023-12-29T07:59:28;9.60;73.10
152;DHT22;68;48.792;9.164;2023-12-29T08:01:55;9.70;75.50
152;DHT22;68;48.792;9.164;2023-12-29T08:04:23;9.80;76.40
152;DHT22;68;48.792;9.164;2023-12-29T08:06:51;9.80;75.80
152;DHT22;68;48.792;9.164;2023-12-29T08:09:18;9.80;75.90
152;DHT22;68;48.792;9.164;2023-12-29T08:11:45;9.90;79.90
152;DHT22;68;48.792;9.164;2023-12-29T08:14:12;9.80;77.10
152;DHT22;68;48.792;9.164;2023-12-29T08:16:38;9.90;78.90
152;DHT22;68;48.792;9.164;2023-12-29T08:19:06;9.90;81.10
152;DHT22;68;48.792;9.164;2023-12-29T08:21:33;9.90;81.00
152;DHT22;68;48.792;9.164;2023-12-29T08:24:01;9.90;81.40
152;DHT22;68;48.792;9.164;2023-12-29T08:26:28;10.00;83.20
152;DHT22;68;48.792;9.164;2023-12-29T08:31:22;10.00;82.90
152;DHT22;68;48.792;9.164;2023-12-29T08:33:49;9.90;83.10
152;DHT22;68;48.792;9.164;2023-12-29T08:36:18;10.00;82.50
152;DHT22;68;48.792;9.164;2023-12-29T08:38:45;10.10;85.30
152;DHT22;68;48.792;9.164;2023-12-29T08:41:15;10.10;83.60
152;DHT22;68;48.792;9.164;2023-12-29T08:43:41;10.10;83.80
152;DHT22;68;48.792;9.164;2023-12-29T08:46:08;10.20;81.00
152;DHT22;68;48.792;9.164;2023-12-29T08:48:35;10.10;81.20
152;DHT22;68;48.792;9.164;2023-12-29T08:51:02;10.30;81.20
152;DHT22;68;48.792;9.164;2023-12-29T08:53:29;10.40;83.30
152;DHT22;68;48.792;9.164;2023-12-29T08:55:59;10.30;82.50
152;DHT22;68;48.792;9.164;2023-12-29T08:58:27;10.30;83.80
152;DHT22;68;48.792;9.164;2023-12-29T09:00:54;10.30;85.20
152;DHT22;68;48.792;9.164;2023-12-29T09:03:21;10.20;86.20
152;DHT22;68;48.792;9.164;2023-12-29T09:08:15;10.20;85.10
152;DHT22;68;48.792;9.164;2023-12-29T09:10:42;10.30;85.60
152;DHT22;68;48.792;9.164;2023-12-29T09:13:09;10.40;89.10
152;DHT22;68;48.792;9.164;2023-12-29T09:15:37;10.50;90.10
152;DHT22;68;48.792;9.164;2023-12-29T09:18:04;10.50;91.10
152;DHT22;68;48.792;9.164;2023-12-29T09:20:31;10.50;89.20
152;DHT22;68;48.792;9.164;2023-12-29T09:22:58;10.50;88.90
152;DHT22;68;48.792;9.164;2023-12-29T09:25:25;10.60;89.00
152;DHT22;68;48.792;9.164;2023-12-29T09:27:53;10.70;91.10
152;DHT22;68;48.792;9.164;2023-12-29T09:30:20;10.90;92.00
152;DHT22;68;48.792;9.164;2023-12-29T09:32:48;10.90;92.60
152;DHT22;68;48.792;9.164;2023-12-29T09:35:14;10.70;89.50
152;DHT22;68;48.792;9.164;2023-12-29T09:37:42;10.80;90.90
152;DHT22;68;48.792;9.164;2023-12-29T09:40:10;10.90;91.30
152;DHT22;68;48.792;9.164;2023-12-29T09:42:38;10.80;91.60
152;DHT22;68;48.792;9.164;2023-12-29T09:45:09;10.80;90.80
152;DHT22;68;48.792;9.164;2023-12-29T09:47:38;10.80;91.90
152;DHT22;68;48.792;9.164;2023-12-29T09:50:10;10.80;91.40
152;DHT22;68;48.792;9.164;2023-12-29T09:52:39;10.70;88.60
152;DHT22;68;48.792;9.164;2023-12-29T09:55:09;10.80;89.50
152;DHT22;68;48.792;9.164;2023-12-29T09:57:36;10.90;92.40
152;DHT22;68;48.792;9.164;2023-12-29T10:00:05;10.70;92.80
152;DHT22;68;48.792;9.164;2023-12-29T10:02:33;10.80;90.20
152;DHT22;68;48.792;9.164;2023-12-29T10:05:02;11.00;91.80
152;DHT22;68;48.792;9.164;2023-12-29T10:07:35;11.20;92.30
152;DHT22;68;48.792;9.164;2023-12-29T10:10:03;11.30;92.30
152;DHT22;68;48.792;9.164;2023-12-29T10:12:32;11.40;93.30
152;DHT22;68;48.792;9.164;2023-12-29T10:15:05;11.60;94.50
152;DHT22;68;48.792;9.164;2023-12-29T10:17:41;11.60;95.50
152;DHT22;68;48.792;9.164;2023-12-29T10:20:15;11.70;95.60
152;DHT22;68;48.792;9.164;2023-12-29T10:22:48;12.00;96.00
152;DHT22;68;48.792;9.164;2023-12-29T10:27:45;12.00;96.10
152;DHT22;68;48.792;9.164;2023-12-29T10:30:12;12.10;95.90
152;DHT22;68;48.792;9.164;2023-12-29T10:32:39;12.30;95.90
152;DHT22;68;48.792;9.164;2023-12-29T10:35:09;12.40;95.70
152;DHT22;68;48.792;9.164;2023-12-29T10:37:36;12.40;95.10
152;DHT22;68;48.792;9.164;2023-12-29T10:40:06;12.70;95.00
152;DHT22;68;48.792;9.164;2023-12-29T10:42:33;12.80;94.50
152;DHT22;68;48.792;9.164;2023-12-29T10:45:06;13.00;92.70
152;DHT22;68;48.792;9.164;2023-12-29T10:47:36;13.10;92.00
152;DHT22;68;48.792;9.164;2023-12-29T10:50:04;13.20;92.50
152;DHT22;68;48.792;9.164;2023-12-29T10:52:32;12.90;92.30
152;DHT22;68;48.792;9.164;2023-12-29T10:55:07;13.00;93.00
152;DHT22;68;48.792;9.164;2023-12-29T10:57:35;13.10;91.50
152;DHT22;68;48.792;9.164;2023-12-29T11:00:03;13.00;91.40
152;DHT22;68;48.792;9.164;2023-12-29T11:02:31;13.20;91.00
152;DHT22;68;48.792;9.164;2023-12-29T11:05:03;13.30;89.80
152;DHT22;68;48.792;9.164;2023-12-29T11:07:38;13.40;90.50
152;DHT22;68;48.792;9.164;2023-12-29T11:10:07;13.50;88.50
152;DHT22;68;48.792;9.164;2023-12-29T11:12:36;13.50;89.50
152;DHT22;68;48.792;9.164;2023-12-29T11:15:06;13.60;88.80
152;DHT22;68;48.792;9.164;2023-12-29T11:17:34;13.50;88.00
152;DHT22;68;48.792;9.164;2023-12-29T11:20:03;13.50;88.70
152;DHT22;68;48.792;9.164;2023-12-29T11:22:31;13.70;86.60
152;DHT22;68;48.792;9.164;2023-12-29T11:24:59;13.30;88.50
152;DHT22;68;48.792;9.164;2023-12-29T11:27:29;13.40;87.60
152;DHT22;68;48.792;9.164;2023-12-29T11:29:57;13.30;86.50
152;DHT22;68;48.792;9.164;2023-12-29T11:32:30;13.30;87.40
152;DHT22;68;48.792;9.164;2023-12-29T11:35:04;13.20;87.00
152;DHT22;68;48.792;9.164;2023-12-29T11:37:47;12.90;87.70
152;DHT22;68;48.792;9.164;2023-12-29T11:40:20;13.20;87.40
152;DHT22;68;48.792;9.164;2023-12-29T11:42:51;13.20;87.60
152;DHT22;68;48.792;9.164;2023-12-29T11:45:29;13.20;86.40
152;DHT22;68;48.792;9.164;2023-12-29T11:47:57;13.20;85.70
152;DHT22;68;48.792;9.164;2023-12-29T11:50:30;13.30;85.50
152;DHT22;68;48.792;9.164;2023-12-29T11:52:58;13.10;86.20
152;DHT22;68;48.792;9.164;2023-12-29T11:55:33;13.30;85.20
152;DHT22;68;48.792;9.164;2023-12-29T11:58:02;13.50;83.90
152;DHT22;68;48.792;9.164;2023-12-29T12:00:43;13.50;83.10
152;DHT22;68;48.792;9.164;2023-12-29T12:03:19;13.50;82.80
152;DHT22;68;48.792;9.164;2023-12-29T12:05:50;13.00;83.10
152;DHT22;68;48.792;9.164;2023-12-29T12:08:38;12.80;84.20
152;DHT22;68;48.792;9.164;2023-12-29T12:11:41;12.80;84.50
152;DHT22;68;48.792;9.164;2023-12-29T12:14:10;12.90;84.60
152;DHT22;68;48.792;9.164;2023-12-29T12:16:47;13.10;84.40
152;DHT22;68;48.792;9.164;2023-12-29T12:19:14;13.00;84.40
152;DHT22;68;48.792;9.164;2023-12-29T12:21:45;13.00;84.40
152;DHT22;68;48.792;9.164;2023-12-29T12:24:13;13.10;84.00
152;DHT22;68;48.792;9.164;2023-12-29T12:26:40;13.20;83.60
152;DHT22;68;48.792;9.164;2023-12-29T12:29:07;13.10;83.80
152;DHT22;68;48.792;9.164;2023-12-29T12:31:36;13.20;83.30
152;DHT22;68;48.792;9.164;2023-12-29T12:34:03;13.30;83.20
152;DHT22;68;48.792;9.164;2023-12-29T12:36:31;13.00;83.00
152;DHT22;68;48.792;9.164;2023-12-29T12:38:58;13.00;82.60
152;DHT22;68;48.792;9.164;2023-12-29T12:41:26;13.10;82.60
152;DHT22;68;48.792;9.164;2023-12-29T12:44:00;13.20;81.80
152;DHT22;68;48.792;9.164;2023-12-29T12:46:33;13.40;81.70
152;DHT22;68;48.792;9.164;2023-12-29T12:49:02;13.50;81.30
152;DHT22;68;48.792;9.164;2023-12-29T12:51:30;13.40;80.70
152;DHT22;68;48.792;9.164;2023-12-29T12:53:59;13.10;82.70
152;DHT22;68;48.792;9.164;2023-12-29T12:56:26;13.00;82.00
152;DHT22;68;48.792;9.164;2023-12-29T12:58:55;13.10;83.20
152;DHT22;68;48.792;9.164;2023-12-29T13:01:23;13.00;81.50
152;DHT22;68;48.792;9.164;2023-12-29T13:03:50;13.10;81.70
152;DHT22;68;48.792;9.164;2023-12-29T13:06:20;13.10;81.80
152;DHT22;68;48.792;9.164;2023-12-29T13:08:48;13.20;82.10
152;DHT22;68;48.792;9.164;2023-12-29T13:11:19;13.30;82.00
152;DHT22;68;48.792;9.164;2023-12-29T13:13:47;13.00;82.50
152;DHT22;68;48.792;9.164;2023-12-29T13:16:14;13.00;82.30
152;DHT22;68;48.792;9.164;2023-12-29T13:18:41;13.00;82.90
152;DHT22;68;48.792;9.164;2023-12-29T13:21:08;13.00;83.50
152;DHT22;68;48.792;9.164;2023-12-29T13:23:37;13.10;82.00
152;DHT22;68;48.792;9.164;2023-12-29T13:26:07;13.00;82.60
152;DHT22;68;48.792;9.164;2023-12-29T13:28:34;12.70;82.90
152;DHT22;68;48.792;9.164;2023-12-29T13:31:01;12.80;82.30
152;DHT22;68;48.792;9.164;2023-12-29T13:33:31;12.70;82.10
152;DHT22;68;48.792;9.164;2023-12-29T13:36:08;12.60;82.90
152;DHT22;68;48.792;9.164;2023-12-29T13:38:43;12.60;82.40
152;DHT22;68;48.792;9.164;2023-12-29T13:41:14;12.60;81.70
152;DHT22;68;48.792;9.164;2023-12-29T13:43:42;12.70;81.40
152;DHT22;68;48.792;9.164;2023-12-29T13:46:11;12.80;80.60
152;DHT22;68;48.792;9.164;2023-12-29T13:48:40;12.70;81.60
152;DHT22;68;48.792;9.164;2023-12-29T13:51:07;12.80;81.00
152;DHT22;68;48.792;9.164;2023-12-29T13:53:34;12.70;81.10
152;DHT22;68;48.792;9.164;2023-12-29T13:56:10;12.70;81.90
152;DHT22;68;48.792;9.164;2023-12-29T13:58:37;12.70;81.10
152;DHT22;68;48.792;9.164;2023-12-29T14:01:07;12.70;81.60
152;DHT22;68;48.792;9.164;2023-12-29T14:03:42;12.70;81.20
152;DHT22;68;48.792;9.164;2023-12-29T14:06:12;12.70;81.70
152;DHT22;68;48.792;9.164;2023-12-29T14:08:44;12.70;81.10
152;DHT22;68;48.792;9.164;2023-12-29T14:11:13;12.90;80.70
152;DHT22;68;48.792;9.164;2023-12-29T14:13:43;12.90;80.70
152;DHT22;68;48.792;9.164;2023-12-29T14:16:11;13.00;80.00
152;DHT22;68;48.792;9.164;2023-12-29T14:18:53;12.90;81.00
152;DHT22;68;48.792;9.164;2023-12-29T14:21:24;12.50;81.20
152;DHT22;68;48.792;9.164;2023-12-29T14:24:08;12.60;80.70
152;DHT22;68;48.792;9.164;2023-12-29T14:26:36;12.50;80.10
152;DHT22;68;48.792;9.164;2023-12-29T14:29:05;12.40;80.70
152;DHT22;68;48.792;9.164;2023-12-29T14:31:34;12.40;80.90
152;DHT22;68;48.792;9.164;2023-12-29T14:34:01;12.30;81.20
152;DHT22;68;48.792;9.164;2023-12-29T14:36:29;12.30;81.00
152;DHT22;68;48.792;9.164;2023-12-29T14:38:55;12.50;80.00
152;DHT22;68;48.792;9.164;2023-12-29T14:41:22;12.60;80.00
152;DHT22;68;48.792;9.164;2023-12-29T14:43:51;12.40;80.20
152;DHT22;68;48.792;9.164;2023-12-29T14:46:18;12.30;81.60
152;DHT22;68;48.792;9.164;2023-12-29T14:48:45;12.00;81.70
152;DHT22;68;48.792;9.164;2023-12-29T14:51:12;12.20;80.80
152;DHT22;68;48.792;9.164;2023-12-29T14:53:39;12.20;81.10
152;DHT22;68;48.792;9.164;2023-12-29T14:56:06;12.50;80.00
152;DHT22;68;48.792;9.164;2023-12-29T14:58:33;12.50;80.60
152;DHT22;68;48.792;9.164;2023-12-29T15:01:03;12.50;81.00
152;DHT22;68;48.792;9.164;2023-12-29T15:03:30;12.30;81.10
152;DHT22;68;48.792;9.164;2023-12-29T15:05:57;12.10;82.20
152;DHT22;68;48.792;9.164;2023-12-29T15:08:24;12.10;82.30
152;DHT22;68;48.792;9.164;2023-12-29T15:10:51;12.20;80.70
152;DHT22;68;48.792;9.164;2023-12-29T15:13:18;12.20;80.60
152;DHT22;68;48.792;9.164;2023-12-29T15:15:45;12.30;80.70
152;DHT22;68;48.792;9.164;2023-12-29T15:18:13;12.40;80.00
152;DHT22;68;48.792;9.164;2023-12-29T15:20:40;12.20;81.30
152;DHT22;68;48.792;9.164;2023-12-29T15:23:07;11.90;80.70
152;DHT22;68;48.792;9.164;2023-12-29T15:25:34;11.90;80.80
152;DHT22;68;48.792;9.164;2023-12-29T15:28:00;12.10;80.20
152;DHT22;68;48.792;9.164;2023-12-29T15:30:27;12.10;80.10
152;DHT22;68;48.792;9.164;2023-12-29T15:32:54;12.10;80.40
152;DHT22;68;48.792;9.164;2023-12-29T15:35:22;11.80;82.10
152;DHT22;68;48.792;9.164;2023-12-29T15:37:49;11.70;82.40
152;DHT22;68;48.792;9.164;2023-12-29T15:40:15;11.70;82.30
152;DHT22;68;48.792;9.164;2023-12-29T15:42:42;11.70;82.30
152;DHT22;68;48.792;9.164;2023-12-29T15:45:09;11.50;83.40
152;DHT22;68;48.792;9.164;2023-12-29T15:47:36;11.80;82.10
152;DHT22;68;48.792;9.164;2023-12-29T15:50:04;11.90;81.10
152;DHT22;68;48.792;9.164;2023-12-29T15:52:32;12.00;81.10
152;DHT22;68;48.792;9.164;2023-12-29T15:54:59;12.00;80.80
152;DHT22;68;48.792;9.164;2023-12-29T15:57:25;11.90;80.50
152;DHT22;68;48.792;9.164;2023-12-29T15:59:52;11.70;80.70
152;DHT22;68;48.792;9.164;2023-12-29T16:02:20;11.70;82.50
152;DHT22;68;48.792;9.164;2023-12-29T16:04:47;11.60;82.90
152;DHT22;68;48.792;9.164;2023-12-29T16:07:13;11.70;81.30
152;DHT22;68;48.792;9.164;2023-12-29T16:09:41;11.60;81.40
152;DHT22;68;48.792;9.164;2023-12-29T16:12:08;11.60;79.90
152;DHT22;68;48.792;9.164;2023-12-29T16:14:35;11.60;79.90
152;DHT22;68;48.792;9.164;2023-12-29T16:17:02;11.50;81.40
152;DHT22;68;48.792;9.164;2023-12-29T16:19:29;11.60;79.50
152;DHT22;68;48.792;9.164;2023-12-29T16:21:56;11.40;80.80
152;DHT22;68;48.792;9.164;2023-12-29T16:24:22;11.40;78.00
152;DHT22;68;48.792;9.164;2023-12-29T16:26:50;11.40;77.90
152;DHT22;68;48.792;9.164;2023-12-29T16:29:17;11.40;79.30
152;DHT22;68;48.792;9.164;2023-12-29T16:31:44;11.50;78.20
152;DHT22;68;48.792;9.164;2023-12-29T16:34:11;11.30;79.10
152;DHT22;68;48.792;9.164;2023-12-29T16:36:38;11.40;79.30
152;DHT22;68;48.792;9.164;2023-12-29T16:39:04;10.80;80.10
152;DHT22;68;48.792;9.164;2023-12-29T16:41:31;10.50;81.10
152;DHT22;68;48.792;9.164;2023-12-29T16:44:01;10.50;81.60
152;DHT22;68;48.792;9.164;2023-12-29T16:46:27;10.50;81.80
152;DHT22;68;48.792;9.164;2023-12-29T16:48:54;10.50;81.60
152;DHT22;68;48.792;9.164;2023-12-29T16:51:21;10.40;83.30
152;DHT22;68;48.792;9.164;2023-12-29T16:53:48;10.40;82.90
152;DHT22;68;48.792;9.164;2023-12-29T16:56:14;10.40;82.80
152;DHT22;68;48.792;9.164;2023-12-29T16:58:41;10.10;83.30
152;DHT22;68;48.792;9.164;2023-12-29T17:01:09;10.10;83.80
152;DHT22;68;48.792;9.164;2023-12-29T17:03:36;10.40;83.00
152;DHT22;68;48.792;9.164;2023-12-29T17:06:03;10.30;83.60
152;DHT22;68;48.792;9.164;2023-12-29T17:08:30;10.10;83.70
152;DHT22;68;48.792;9.164;2023-12-29T17:10:57;9.80;83.80
152;DHT22;68;48.792;9.164;2023-12-29T17:13:24;9.80;84.40
152;DHT22;68;48.792;9.164;2023-12-29T17:15:51;10.00;84.80